Time;durP1;ratioP1;P1;durP2;ratioP2;P2;SDS_P1;SDS_P2;PMS_P1;PMS_P2;Temp;Humidity;BMP_temperature;BMP_pressure;BME280_temperature;BME280_humidity;BME280_pressure;Samples;Min_cycle;Max_cycle;Signal;HPM_P1;HPM_P2
2021/11/10 00:02:26;;;;;;;25.50;12.73;;;;;;;1.96;78.47;97054.88;5088852;28;20050;-72
2021/11/10 00:04:54;;;;;;;24.90;12.25;;;;;;;1.98;78.39;97047.38;5089500;28;20727;-72
2021/11/10 00:07:20;;;;;;;21.17;12.13;;;;;;;1.97;78.15;97048.44;5088341;28;20130;-72
2021/11/10 00:09:47;;;;;;;25.88;13.23;;;;;;;1.93;78.28;97047.31;5089527;28;20534;-72
2021/11/10 00:12:13;;;;;;;23.77;12.77;;;;;;;1.92;78.11;97051.06;5101633;28;20554;-72
2021/11/10 00:14:40;;;;;;;24.52;12.45;;;;;;;1.91;78.27;97060.16;5109839;28;20047;-72
2021/11/10 00:17:06;;;;;;;29.38;13.88;;;;;;;1.90;78.41;97063.91;5095291;28;20063;-72
2021/11/10 00:19:33;;;;;;;27.33;13.15;;;;;;;1.88;78.43;97063.34;5089320;28;20056;-72
2021/11/10 00:22:01;;;;;;;26.27;14.10;;;;;;;1.87;78.70;97065.22;5087566;28;20059;-72
2021/11/10 00:24:27;;;;;;;24.23;13.13;;;;;;;1.87;78.48;97070.59;5084345;28;20060;-72
2021/11/10 00:26:54;;;;;;;24.42;12.20;;;;;;;1.88;78.29;97064.19;5089054;28;20048;-72
2021/11/10 00:29:20;;;;;;;24.33;12.10;;;;;;;1.87;78.40;97067.09;5088245;28;20040;-72
2021/11/10 00:31:46;;;;;;;20.52;11.77;;;;;;;1.88;77.93;97085.66;5088690;28;20056;-72
2021/11/10 00:34:13;;;;;;;21.50;9.82;;;;;;;1.85;78.29;97093.38;5087815;28;20059;-72
2021/11/10 00:36:40;;;;;;;16.52;9.25;;;;;;;1.83;78.40;97089.06;5089071;28;20499;-72
2021/11/10 00:39:08;;;;;;;16.17;8.85;;;;;;;1.75;78.74;97089.47;5087475;28;20052;-72
2021/11/10 00:41:35;;;;;;;16.55;9.35;;;;;;;1.72;79.26;97086.44;5088753;28;20052;-72
2021/11/10 00:44:02;;;;;;;16.38;9.63;;;;;;;1.70;79.50;97084.00;5087607;28;20060;-72
2021/11/10 00:46:29;;;;;;;18.38;9.65;;;;;;;1.68;79.32;97070.03;5088322;28;20181;-72
2021/11/10 00:48:56;;;;;;;16.95;8.48;;;;;;;1.68;79.50;97070.03;5087975;28;20048;-72
2021/11/10 00:51:22;;;;;;;16.00;8.82;;;;;;;1.68;79.59;97075.41;5087632;28;20068;-72
2021/11/10 00:53:49;;;;;;;17.75;8.52;;;;;;;1.67;79.78;97068.41;5097030;28;20063;-72
2021/11/10 00:56:17;;;;;;;17.60;8.77;;;;;;;1.67;79.78;97057.66;5107587;28;20052;-72
2021/11/10 00:58:43;;;;;;;15.02;8.88;;;;;;;1.68;79.70;97070.03;5109069;28;20043;-72
2021/11/10 01:01:10;;;;;;;12.80;8.93;;;;;;;1.70;79.74;97054.47;5107624;28;20039;-72
2021/11/10 01:03:37;;;;;;;15.15;8.77;;;;;;;1.71;79.73;97052.59;5108681;28;20047;-72
2021/11/10 01:06:04;;;;;;;14.10;8.73;;;;;;;1.72;79.71;97055.06;5107180;27;20539;-72
2021/11/10 01:08:30;;;;;;;15.95;9.35;;;;;;;1.73;79.64;97045.94;5108723;28;20047;-72
2021/11/10 01:10:58;;;;;;;15.48;8.95;;;;;;;1.74;79.84;97052.13;5107162;28;20134;-72
2021/11/10 01:13:26;;;;;;;18.63;9.02;;;;;;;1.73;79.71;97051.31;5107481;28;20047;-72
2021/11/10 01:15:53;;;;;;;15.52;8.88;;;;;;;1.75;79.49;97049.19;5108110;28;20075;-72
2021/11/10 01:18:20;;;;;;;15.70;9.13;;;;;;;1.77;78.68;97048.94;5107149;28;20040;-72
2021/11/10 01:20:47;;;;;;;13.63;8.43;;;;;;;1.75;78.37;97049.19;5108385;28;20047;-72
2021/11/10 01:23:14;;;;;;;15.60;8.55;;;;;;;1.73;78.31;97051.31;5099214;28;20040;-72
2021/11/10 01:25:41;;;;;;;15.75;8.60;;;;;;;1.67;78.58;97046.94;5087954;28;20056;-72
2021/11/10 01:28:08;;;;;;;14.82;8.40;;;;;;;1.68;78.65;97037.81;5086624;28;20052;-72
2021/11/10 01:30:37;;;;;;;15.88;8.38;;;;;;;1.69;77.97;97034.06;5088268;28;20140;-72
2021/11/10 01:33:03;;;;;;;14.20;7.88;;;;;;;1.66;78.13;97039.91;5086342;28;20484;-72
2021/11/10 01:35:30;;;;;;;14.80;8.75;;;;;;;1.62;78.04;97043.31;5087624;28;20055;-72
2021/11/10 01:37:57;;;;;;;14.50;8.88;;;;;;;1.54;78.16;97033.81;5087541;28;20052;-72
2021/11/10 01:40:23;;;;;;;13.85;8.82;;;;;;;1.51;78.38;97042.34;5086802;28;20051;-72
2021/11/10 01:42:53;;;;;;;17.15;8.95;;;;;;;1.49;78.67;97039.91;5087567;28;20055;-72
2021/11/10 01:45:20;;;;;;;19.15;9.63;;;;;;;1.47;78.71;97043.91;5086260;28;20044;-72
2021/11/10 01:47:48;;;;;;;15.93;8.40;;;;;;;1.48;79.15;97048.22;5087880;28;20063;-72
2021/11/10 01:50:18;;;;;;;15.65;9.02;;;;;;;1.50;79.07;97036.16;5086137;28;20503;-72
2021/11/10 01:52:45;;;;;;;13.88;9.00;;;;;;;1.47;79.39;97035.84;5087253;28;20048;-72
2021/11/10 01:55:12;;;;;;;17.08;8.60;;;;;;;1.46;79.24;97039.56;5086042;28;20519;-72
2021/11/10 01:57:39;;;;;;;17.83;9.55;;;;;;;1.42;79.30;97033.09;5087713;28;20068;-72
2021/11/10 02:00:13;;;;;;;16.50;9.20;;;;;;;1.40;79.51;97035.19;5086891;28;20044;-72
2021/11/10 02:02:41;;;;;;;21.42;10.50;;;;;;;1.40;79.80;97029.81;5087007;28;20522;-72
2021/11/10 02:05:11;;;;;;;24.45;11.27;;;;;;;1.40;79.83;97030.63;5087057;28;20680;-71
2021/11/10 02:07:38;;;;;;;14.27;8.68;;;;;;;1.44;79.75;97047.06;5086758;28;20059;-72
2021/11/10 02:10:08;;;;;;;15.70;8.80;;;;;;;1.50;79.45;97040.72;5087479;28;20150;-72
2021/11/10 02:12:35;;;;;;;19.08;8.38;;;;;;;1.52;79.09;97044.81;5086587;28;20058;-72
2021/11/10 02:15:04;;;;;;;17.00;8.52;;;;;;;1.51;79.55;97037.81;5087073;28;20048;-72
2021/11/10 02:17:30;;;;;;;12.80;8.02;;;;;;;1.50;79.43;97030.00;5086584;28;20059;-72
2021/11/10 02:19:57;;;;;;;12.25;7.72;;;;;;;1.48;78.67;97026.75;5087070;28;20048;-72
2021/11/10 02:22:25;;;;;;;12.38;8.15;;;;;;;1.40;78.77;97030.63;5086787;28;20048;-72
2021/11/10 02:24:51;;;;;;;14.32;7.95;;;;;;;1.37;79.11;97027.63;5108421;27;20062;-72
2021/11/10 02:27:19;;;;;;;15.40;8.30;;;;;;;1.32;78.81;97022.19;5111088;28;20043;-72
2021/11/10 02:29:47;;;;;;;15.43;8.43;;;;;;;1.22;78.86;97023.63;5110878;27;20059;-72
2021/11/10 02:32:15;;;;;;;16.65;8.88;;;;;;;1.18;79.04;97022.47;5110823;28;20036;-72
2021/11/10 02:34:43;;;;;;;15.90;8.82;;;;;;;1.18;79.60;97009.06;5110630;28;20522;-71
2021/11/10 02:37:11;;;;;;;16.75;10.05;;;;;;;1.22;79.81;97012.91;5111318;28;20529;-72
2021/11/10 02:39:39;;;;;;;15.82;9.27;;;;;;;1.27;80.11;97013.00;5110541;28;20656;-72
2021/11/10 02:42:06;;;;;;;15.00;9.00;;;;;;;1.32;80.04;97000.72;5110709;28;20047;-73
2021/11/10 02:44:33;;;;;;;15.02;8.68;;;;;;;1.38;79.29;97007.78;5111182;27;20052;-72
2021/11/10 02:47:01;;;;;;;15.57;8.30;;;;;;;1.38;79.28;97007.78;5111060;28;20117;-72
2021/11/10 02:49:28;;;;;;;18.15;9.85;;;;;;;1.37;79.28;97014.22;5110713;27;20430;-72
2021/11/10 02:52:00;;;;;;;20.15;10.27;;;;;;;1.35;79.42;97010.94;5110400;28;20055;-72
2021/11/10 02:54:29;;;;;;;22.02;10.73;;;;;;;1.37;79.63;97022.28;5093308;28;20044;-72
2021/11/10 02:56:59;;;;;;;17.67;10.23;;;;;;;1.37;79.62;97014.22;5090171;28;20051;-72
2021/11/10 02:59:26;;;;;;;18.67;10.80;;;;;;;1.36;79.72;97012.56;5090556;28;20052;-72
2021/11/10 03:01:53;;;;;;;13.55;8.95;;;;;;;1.37;79.88;97011.53;5089830;28;20055;-71
2021/11/10 03:04:21;;;;;;;15.63;9.20;;;;;;;1.36;79.63;97010.72;5089649;28;20051;-72
2021/11/10 03:06:48;;;;;;;18.48;9.55;;;;;;;1.34;79.81;97009.31;5089871;28;20464;-72
2021/11/10 03:09:18;;;;;;;13.52;8.23;;;;;;;1.35;79.79;97010.94;5089725;28;20048;-72
2021/11/10 03:11:45;;;;;;;18.63;8.57;;;;;;;1.34;79.54;96998.59;5090404;28;20502;-72
2021/11/10 03:14:14;;;;;;;17.35;9.15;;;;;;;1.36;79.75;97004.50;5088751;28;20054;-72
2021/11/10 03:16:41;;;;;;;21.13;8.75;;;;;;;1.38;79.78;97010.47;5090794;28;20060;-72
2021/11/10 03:19:08;;;;;;;14.65;8.38;;;;;;;1.40;79.98;97008.34;5089220;28;20074;-72
2021/11/10 03:21:35;;;;;;;14.25;8.50;;;;;;;1.44;79.69;97001.44;5090327;28;20498;-72
2021/11/10 03:24:01;;;;;;;17.73;8.80;;;;;;;1.47;79.23;97009.03;5089175;28;20048;-72
2021/11/10 03:26:28;;;;;;;14.38;8.32;;;;;;;1.47;79.21;97004.47;5089966;28;20044;-72
2021/11/10 03:28:54;;;;;;;15.82;7.90;;;;;;;1.47;79.20;97011.69;5089444;28;20055;-71
2021/11/10 03:31:23;;;;;;;14.65;8.15;;;;;;;1.49;78.93;97012.25;5089113;28;20044;-72
2021/11/10 03:33:49;;;;;;;15.30;8.80;;;;;;;1.49;78.72;97006.91;5089309;28;20695;-72
2021/11/10 03:36:16;;;;;;;16.67;8.25;;;;;;;1.45;78.75;97003.06;5088989;28;20502;-72
2021/11/10 03:38:43;;;;;;;13.65;8.18;;;;;;;1.43;78.82;96997.13;5089993;28;20052;-72
2021/11/10 03:41:09;;;;;;;13.82;7.95;;;;;;;1.42;78.77;96998.19;5088689;28;20777;-72
2021/11/10 03:43:36;;;;;;;13.07;7.85;;;;;;;1.38;78.97;96999.75;5089962;28;20051;-72
2021/11/10 03:46:03;;;;;;;15.02;8.25;;;;;;;1.38;79.10;96997.06;5088508;28;20051;-72
2021/11/10 03:48:31;;;;;;;14.20;8.40;;;;;;;1.39;79.01;96993.31;5089726;28;20055;-72
2021/11/10 03:50:58;;;;;;;18.80;8.98;;;;;;;1.38;79.10;96980.97;5089425;28;20097;-72
2021/11/10 03:53:24;;;;;;;16.60;8.80;;;;;;;1.39;79.18;96979.91;5094733;28;20664;-72
2021/11/10 03:55:51;;;;;;;17.58;8.40;;;;;;;1.40;79.17;96981.50;5109734;28;20052;-72
2021/11/10 03:58:17;;;;;;;16.75;8.50;;;;;;;1.39;78.99;96982.56;5108780;27;20522;-72
2021/11/10 04:00:44;;;;;;;13.73;7.43;;;;;;;1.34;79.30;96977.94;5110160;27;20058;-72
2021/11/10 04:03:11;;;;;;;17.08;8.00;;;;;;;1.30;79.33;96980.31;5108134;28;20051;-72
2021/11/10 04:05:42;;;;;;;15.98;8.35;;;;;;;1.30;79.39;96976.78;5109929;28;20051;-71
2021/11/10 04:08:08;;;;;;;15.90;8.25;;;;;;;1.32;79.65;96984.63;5108522;27;20047;-73
2021/11/10 04:10:35;;;;;;;15.20;8.95;;;;;;;1.37;79.81;96982.81;5109722;28;20055;-72
2021/11/10 04:13:02;;;;;;;17.17;9.20;;;;;;;1.38;79.68;96991.69;5108268;28;20550;-71
2021/11/10 04:15:28;;;;;;;13.82;8.95;;;;;;;1.36;79.55;96991.94;5109105;27;20600;-72
2021/11/10 04:17:54;;;;;;;14.57;8.32;;;;;;;1.38;79.70;96989.00;5109141;27;20052;-72
2021/11/10 04:20:21;;;;;;;14.02;8.30;;;;;;;1.40;79.80;96992.25;5108445;28;20422;-72
2021/11/10 04:22:49;;;;;;;13.95;8.45;;;;;;;1.40;79.76;97002.97;5105315;28;20067;-72
2021/11/10 04:25:15;;;;;;;13.93;8.57;;;;;;;1.41;79.70;97008.13;5087506;28;20140;-72
2021/11/10 04:27:42;;;;;;;16.70;9.60;;;;;;;1.45;79.85;97003.88;5089268;28;20052;-72
2021/11/10 04:30:11;;;;;;;18.05;8.98;;;;;;;1.49;79.45;97002.34;5087713;28;20541;-72
2021/11/10 04:32:38;;;;;;;16.85;8.35;;;;;;;1.50;79.15;96997.78;5089027;28;20052;-72
2021/11/10 04:35:06;;;;;;;14.68;8.73;;;;;;;1.50;79.21;97003.16;5087415;28;20048;-72
2021/11/10 04:37:33;;;;;;;15.27;8.90;;;;;;;1.50;79.14;97003.16;5088576;28;20052;-72
2021/11/10 04:40:01;;;;;;;15.88;9.50;;;;;;;1.49;79.37;96993.47;5088264;28;20188;-72
2021/11/10 04:42:28;;;;;;;16.75;9.23;;;;;;;1.49;79.57;96990.78;5088020;28;20106;-72
2021/11/10 04:44:59;;;;;;;20.45;10.57;;;;;;;1.50;79.48;96987.84;5088185;28;20048;-72
2021/11/10 04:47:25;;;;;;;21.02;10.52;;;;;;;1.48;79.56;96997.22;5087488;28;20044;-72
2021/11/10 04:49:52;;;;;;;24.92;12.27;;;;;;;1.49;79.46;96988.09;5088912;28;20071;-72
2021/11/10 04:52:19;;;;;;;33.38;13.73;;;;;;;1.47;79.44;96990.22;5086893;28;20058;-72
2021/11/10 04:54:45;;;;;;;28.50;12.73;;;;;;;1.43;79.43;96987.22;5087811;28;20063;-72
2021/11/10 04:57:13;;;;;;;32.60;14.98;;;;;;;1.42;79.53;96990.97;5087052;28;20044;-72
2021/11/10 04:59:40;;;;;;;30.42;14.15;;;;;;;1.45;79.20;96990.47;5088317;28;20052;-72
2021/11/10 05:02:25;;;;;;;20.05;9.30;;;;;;;1.44;78.99;96988.03;5087312;28;20048;-72
2021/11/10 05:04:53;;;;;;;19.50;9.95;;;;;;;1.42;79.38;96990.97;5087964;28;20083;-72
2021/11/10 05:07:21;;;;;;;18.33;9.07;;;;;;;1.45;79.40;96993.13;5087623;28;20636;-72
2021/11/10 05:09:49;;;;;;;15.73;8.80;;;;;;;1.50;78.89;96987.03;5087223;28;20048;-72
2021/11/10 05:12:18;;;;;;;15.43;8.40;;;;;;;1.42;78.59;96984.78;5087786;28;20574;-72
2021/11/10 05:14:45;;;;;;;12.38;8.02;;;;;;;1.39;78.87;96991.44;5087121;28;20048;-71
2021/11/10 05:17:11;;;;;;;17.83;9.35;;;;;;;1.36;79.02;96981.22;5087788;28;20048;-72
2021/11/10 05:19:38;;;;;;;18.20;9.38;;;;;;;1.37;79.54;96976.66;5087112;28;20056;-72
2021/11/10 05:22:05;;;;;;;15.65;8.60;;;;;;;1.38;79.69;96983.63;5087369;28;20044;-72
2021/11/10 05:24:31;;;;;;;15.45;9.10;;;;;;;1.39;79.66;96985.25;5087334;28;20063;-72
2021/11/10 05:26:58;;;;;;;14.85;8.90;;;;;;;1.41;79.80;96983.13;5087211;28;20078;-72
2021/11/10 05:29:26;;;;;;;18.98;9.45;;;;;;;1.40;79.41;96981.50;5087211;28;20051;-71
2021/11/10 05:31:52;;;;;;;16.25;8.45;;;;;;;1.42;79.34;96984.78;5087093;28;20056;-72
2021/11/10 05:34:19;;;;;;;17.83;9.20;;;;;;;1.47;78.50;96987.56;5087219;28;20070;-72
2021/11/10 05:36:45;;;;;;;15.30;8.70;;;;;;;1.43;78.63;96995.25;5087066;28;20047;-72
2021/11/10 05:39:12;;;;;;;15.45;8.60;;;;;;;1.41;78.74;96991.19;5087179;28;20423;-72
2021/11/10 05:41:38;;;;;;;16.15;9.13;;;;;;;1.43;78.83;96991.78;5086770;28;20048;-72
2021/11/10 05:44:05;;;;;;;14.75;8.60;;;;;;;1.38;78.00;96989.00;5087151;28;20605;-72
2021/11/10 05:46:33;;;;;;;18.33;8.70;;;;;;;1.29;78.42;96997.44;5087086;28;20639;-72
2021/11/10 05:52:56;;;;;;;19.35;9.57;;;;;;;1.24;78.84;97000.03;5086845;28;20059;-72
2021/11/10 05:55:25;;;;;;;19.10;9.23;;;;;;;1.20;78.96;97001.59;5078090;28;20119;-71
2021/11/10 05:57:52;;;;;;;21.48;9.23;;;;;;;1.18;79.01;97000.22;5087155;28;20122;-72
2021/11/10 06:00:20;;;;;;;17.15;9.02;;;;;;;1.18;79.43;96995.66;5087053;28;20052;-74
2021/11/10 06:02:48;;;;;;;14.98;8.70;;;;;;;1.18;79.73;96995.66;5087187;28;20056;-74
2021/11/10 06:05:16;;;;;;;18.95;9.23;;;;;;;1.20;79.75;97003.44;5086750;28;20518;-72
2021/11/10 06:07:45;;;;;;;14.77;8.07;;;;;;;1.22;79.72;97001.34;5086449;28;20089;-73
2021/11/10 06:10:12;;;;;;;18.98;9.05;;;;;;;1.23;79.73;97009.16;5087092;28;20135;-73
2021/11/10 06:12:38;;;;;;;15.30;9.00;;;;;;;1.23;79.83;97003.78;5086475;28;20059;-73
2021/11/10 06:15:06;;;;;;;15.13;9.07;;;;;;;1.22;79.90;97012.91;5086894;28;20048;-72
2021/11/10 06:17:32;;;;;;;16.52;9.35;;;;;;;1.25;79.96;97015.09;5086984;28;20200;-73
2021/11/10 06:20:02;;;;;;;18.63;10.35;;;;;;;1.26;80.02;97022.09;5086746;28;20116;-73
2021/11/10 06:22:28;;;;;;;16.05;9.23;;;;;;;1.32;79.51;97017.63;5085356;28;20102;-72
2021/11/10 06:24:55;;;;;;;17.83;10.13;;;;;;;1.39;79.17;97020.16;5086184;28;20055;-72
2021/11/10 06:27:21;;;;;;;22.95;11.63;;;;;;;1.37;78.36;97019.59;5086011;28;20101;-73
2021/11/10 06:29:48;;;;;;;22.85;11.55;;;;;;;1.29;77.81;97029.63;5084738;28;20163;-72
2021/11/10 06:32:15;;;;;;;30.55;13.52;;;;;;;1.23;77.69;97035.16;5084646;28;20048;-72
2021/11/10 06:34:42;;;;;;;31.23;14.98;;;;;;;1.22;78.33;97034.34;5084337;28;20745;-72
2021/11/10 06:37:10;;;;;;;44.85;20.33;;;;;;;1.21;78.81;97040.78;5086710;28;20048;-73
2021/11/10 06:39:36;;;;;;;31.08;15.25;;;;;;;1.24;79.21;97042.97;5086503;28;20086;-72
2021/11/10 06:42:03;;;;;;;30.98;12.90;;;;;;;1.27;79.54;97036.31;5086348;28;20052;-72
2021/11/10 06:44:29;;;;;;;20.05;10.73;;;;;;;1.30;79.73;97035.81;5086813;28;20063;-72
2021/11/10 06:46:59;;;;;;;24.60;10.75;;;;;;;1.39;79.70;97033.56;5086512;28;20070;-72
2021/11/10 06:49:25;;;;;;;22.50;11.07;;;;;;;1.44;79.97;97036.34;5086612;28;20054;-72
2021/11/10 06:51:52;;;;;;;19.13;10.02;;;;;;;1.48;80.20;97037.47;5085311;28;20051;-72
2021/11/10 06:54:20;;;;;;;19.45;9.90;;;;;;;1.55;80.30;97038.13;5085968;28;20522;-73
2021/11/10 06:56:48;;;;;;;22.38;11.05;;;;;;;1.59;79.72;97033.91;5086032;28;20697;-72
2021/11/10 06:59:15;;;;;;;20.38;11.32;;;;;;;1.62;79.94;97044.16;5086399;28;20048;-72
2021/11/10 07:01:42;;;;;;;22.73;11.02;;;;;;;1.71;79.66;97048.03;5085892;28;20526;-72
2021/11/10 07:04:08;;;;;;;26.27;12.07;;;;;;;1.76;79.82;97050.00;5086341;28;20536;-73
2021/11/10 07:06:34;;;;;;;26.15;11.98;;;;;;;1.87;79.79;97048.28;5086384;28;20060;-73
2021/11/10 07:09:01;;;;;;;18.40;10.45;;;;;;;1.95;79.15;97047.88;5087758;28;20048;-73
2021/11/10 07:11:29;;;;;;;22.23;9.75;;;;;;;1.99;78.93;97044.47;5090293;28;20040;-72
2021/11/10 07:13:55;;;;;;;16.73;9.75;;;;;;;2.03;79.07;97052.81;5089698;28;20052;-72
2021/11/10 07:16:22;;;;;;;14.85;9.35;;;;;;;2.12;78.74;97051.34;5089764;28;20044;-72
2021/11/10 07:18:48;;;;;;;21.48;9.85;;;;;;;2.16;78.85;97049.81;5090391;28;20052;-73
2021/11/10 07:21:16;;;;;;;15.38;9.55;;;;;;;2.26;78.35;97052.63;5090175;28;20044;-72
2021/11/10 07:23:43;;;;;;;16.15;8.95;;;;;;;2.31;78.38;97044.66;5089107;28;20094;-72
2021/11/10 07:26:09;;;;;;;20.63;10.20;;;;;;;2.37;78.71;97039.34;5106556;28;20047;-72
2021/11/10 07:28:37;;;;;;;19.08;10.60;;;;;;;2.48;78.83;97046.47;5110157;28;20058;-72
2021/11/10 07:31:04;;;;;;;19.35;9.95;;;;;;;2.55;79.05;97044.41;5109564;28;20047;-72
2021/11/10 07:33:30;;;;;;;23.50;10.95;;;;;;;2.62;78.97;97045.03;5109905;28;20399;-72
2021/11/10 07:35:57;;;;;;;22.23;10.30;;;;;;;2.72;78.98;97039.78;5109903;27;20043;-73
2021/11/10 07:38:25;;;;;;;17.73;10.30;;;;;;;2.81;78.66;97046.34;5110134;27;20050;-72
2021/11/10 07:40:53;;;;;;;24.00;11.00;;;;;;;2.91;78.59;97048.34;5109668;28;20048;-72
2021/11/10 07:43:19;;;;;;;19.20;10.65;;;;;;;2.99;78.14;97042.53;5110060;27;20079;-72
2021/11/10 07:45:51;;;;;;;17.95;11.57;;;;;;;3.05;77.84;97049.56;5109306;27;20051;-72
2021/11/10 07:48:19;;;;;;;22.13;10.75;;;;;;;3.17;77.89;97059.38;5110106;27;20052;-73
2021/11/10 07:50:45;;;;;;;17.08;9.00;;;;;;;3.29;76.28;97046.56;5109643;28;20047;-73
2021/11/10 07:53:12;;;;;;;23.98;10.45;;;;;;;3.36;76.72;97048.00;5109241;28;20050;-72
2021/11/10 07:55:39;;;;;;;18.17;9.20;;;;;;;3.50;76.12;97045.72;5092545;28;20503;-73
2021/11/10 07:58:06;;;;;;;14.95;9.18;;;;;;;3.56;76.16;97028.53;5088510;28;20064;-72
2021/11/10 08:00:33;;;;;;;17.80;10.25;;;;;;;3.59;76.06;97036.09;5089615;28;20047;-73
2021/11/10 08:03:00;;;;;;;20.98;10.98;;;;;;;3.71;76.14;97046.72;5088425;28;20048;-73
2021/11/10 08:05:27;;;;;;;21.08;11.98;;;;;;;3.81;76.05;97044.09;5089449;28;20048;-73
2021/11/10 08:07:53;;;;;;;22.88;11.75;;;;;;;3.97;76.31;97046.88;5088405;28;20052;-71
2021/11/10 08:10:20;;;;;;;21.35;11.05;;;;;;;4.18;76.17;97052.16;5089417;28;20117;-71
2021/11/10 08:12:48;;;;;;;26.25;12.63;;;;;;;4.36;76.06;97056.31;5088391;28;20098;-71
2021/11/10 08:15:16;;;;;;;25.70;13.38;;;;;;;4.49;75.77;97048.81;5088501;28;20109;-73
2021/11/10 08:17:43;;;;;;;32.65;15.32;;;;;;;4.62;75.36;97043.78;5088879;28;20482;-71
2021/11/10 08:20:14;;;;;;;31.23;15.57;;;;;;;4.74;74.90;97035.44;5087345;28;20044;-71
2021/11/10 08:22:40;;;;;;;30.17;14.88;;;;;;;4.85;74.83;97030.91;5088981;28;20106;-73
2021/11/10 08:25:09;;;;;;;26.98;14.10;;;;;;;5.01;74.08;97023.66;5096051;28;20047;-73
2021/11/10 08:27:36;;;;;;;23.60;12.63;;;;;;;5.07;73.54;97034.22;5109633;28;20047;-73
2021/11/10 08:30:05;;;;;;;23.52;12.98;;;;;;;5.11;72.97;97026.41;5108175;28;20097;-72
2021/11/10 08:32:31;;;;;;;24.67;12.55;;;;;;;5.13;72.81;97026.97;5109355;28;20074;-73
2021/11/10 08:34:58;;;;;;;20.13;10.10;;;;;;;5.17;73.01;97030.75;5108633;28;20073;-73
2021/11/10 08:37:25;;;;;;;19.05;10.25;;;;;;;5.17;72.65;97022.66;5108478;27;20050;-73
2021/11/10 08:39:52;;;;;;;15.85;10.13;;;;;;;5.20;72.54;97016.69;5108805;28;20047;-73
2021/11/10 08:42:18;;;;;;;16.83;10.43;;;;;;;5.20;71.42;97032.91;5108019;28;20055;-73
2021/11/10 08:44:46;;;;;;;18.63;10.77;;;;;;;5.25;71.80;97024.81;5108895;28;20502;-73
2021/11/10 08:47:13;;;;;;;14.20;9.00;;;;;;;5.34;71.50;97017.81;5108006;28;20055;-73
2021/11/10 08:49:39;;;;;;;23.23;9.50;;;;;;;5.40;71.47;97011.34;5092142;28;20060;-73
2021/11/10 08:52:06;;;;;;;13.10;8.82;;;;;;;5.48;70.86;97024.31;5087329;28;20055;-73
2021/11/10 08:54:34;;;;;;;15.02;9.15;;;;;;;5.48;70.62;97027.03;5088285;28;20048;-73
2021/11/10 08:57:01;;;;;;;13.60;9.15;;;;;;;5.48;70.61;97021.63;5088065;28;20453;-73
2021/11/10 08:59:27;;;;;;;15.05;9.20;;;;;;;5.47;70.27;97024.56;5088014;28;20055;-73
2021/11/10 09:01:55;;;;;;;17.77;9.70;;;;;;;5.55;70.81;97025.94;5087509;28;20070;-73
2021/11/10 09:04:22;;;;;;;13.35;8.73;;;;;;;5.64;70.66;97027.03;5087854;28;20662;-73
2021/11/10 09:06:50;;;;;;;16.75;9.63;;;;;;;5.71;70.52;97022.16;5087826;28;20067;-73
2021/11/10 09:09:17;;;;;;;15.30;9.20;;;;;;;5.81;70.04;97021.34;5087474;28;20040;-73
2021/11/10 09:11:47;;;;;;;17.63;8.80;;;;;;;5.88;70.22;97033.50;5088012;28;20530;-73
2021/11/10 09:14:14;;;;;;;19.48;10.00;;;;;;;5.96;70.13;97030.28;5086896;28;20054;-73
2021/11/10 09:16:40;;;;;;;16.80;9.10;;;;;;;6.12;69.71;97033.00;5088513;28;20051;-73
2021/11/10 09:19:07;;;;;;;14.20;8.63;;;;;;;6.35;68.55;97037.78;5086971;28;20055;-73
2021/11/10 09:21:34;;;;;;;14.95;9.38;;;;;;;6.45;67.88;97037.78;5088282;28;20067;-73
2021/11/10 09:24:00;;;;;;;13.70;8.75;;;;;;;6.60;67.58;97039.63;5087197;28;20048;-72
2021/11/10 09:26:27;;;;;;;20.00;10.07;;;;;;;6.77;67.59;97036.59;5087488;28;20052;-73
2021/11/10 09:28:55;;;;;;;14.93;8.93;;;;;;;6.93;67.43;97035.44;5087889;28;20052;-73
2021/11/10 09:31:22;;;;;;;15.73;9.73;;;;;;;7.04;66.93;97039.72;5087079;28;20048;-73
2021/11/10 09:33:49;;;;;;;14.90;8.80;;;;;;;7.23;66.91;97036.38;5088003;28;20529;-73
2021/11/10 09:36:16;;;;;;;16.92;9.00;;;;;;;7.52;66.97;97042.72;5087765;28;20090;-73
2021/11/10 09:38:43;;;;;;;14.43;8.40;;;;;;;7.72;65.66;97038.22;5088320;28;20051;-73
2021/11/10 09:41:10;;;;;;;16.92;9.35;;;;;;;7.83;64.40;97039.78;5087079;28;20051;-72
2021/11/10 09:43:38;;;;;;;14.70;8.82;;;;;;;7.95;64.66;97047.53;5088172;28;20085;-73
2021/11/10 09:46:06;;;;;;;;;;;;;;;7.96;63.71;97044.53;5086917;28;20052;-72
2021/11/10 09:48:33;;;;;;;;;;;;;;;8.03;63.81;97049.63;5088282;28;19969;-73
2021/11/10 09:51:01;;;;;;;14.27;9.63;;;;;;;8.24;64.44;97044.81;5086014;28;20439;-73
2021/11/10 09:53:27;;;;;;;16.05;8.93;;;;;;;8.45;62.53;97057.13;5085271;28;20044;-73
2021/11/10 09:55:55;;;;;;;16.38;8.30;;;;;;;8.49;62.77;97036.47;5087569;28;20541;-73
2021/11/10 09:58:23;;;;;;;17.10;8.38;;;;;;;8.49;63.21;97043.81;5086909;28;20052;-73
2021/11/10 10:00:54;;;;;;;17.15;8.98;;;;;;;8.53;62.95;97026.66;5087921;28;20047;-73
2021/11/10 10:03:24;;;;;;;17.05;9.05;;;;;;;8.51;63.05;97038.88;5086310;28;20052;-73
2021/11/10 10:05:53;;;;;;;11.40;7.75;;;;;;;8.55;63.44;97029.06;5088151;28;20135;-73
2021/11/10 10:08:23;;;;;;;16.10;9.57;;;;;;;8.52;62.78;97030.47;5086807;28;20052;-73
2021/11/10 10:10:51;;;;;;;18.95;8.88;;;;;;;8.54;63.17;97022.84;5087962;28;20471;-73
2021/11/10 10:13:18;;;;;;;18.52;8.75;;;;;;;8.58;63.42;97017.66;5086990;28;20067;-73
2021/11/10 10:15:48;;;;;;;18.70;8.75;;;;;;;8.58;63.43;97018.47;5087602;28;20621;-73
2021/11/10 10:18:17;;;;;;;18.33;9.32;;;;;;;8.55;62.87;97010.88;5087010;28;20079;-73
2021/11/10 10:20:47;;;;;;;14.57;8.10;;;;;;;8.59;63.21;97009.22;5087263;28;20059;-73
2021/11/10 10:23:16;;;;;;;17.10;8.90;;;;;;;8.61;62.93;97007.03;5087640;28;20040;-73
2021/11/10 10:25:45;;;;;;;12.20;7.97;;;;;;;8.63;62.88;97007.53;5086818;28;20048;-73
2021/11/10 10:28:14;;;;;;;14.10;8.52;;;;;;;8.67;62.69;97017.84;5087600;28;20117;-73
2021/11/10 10:30:43;;;;;;;12.52;8.45;;;;;;;8.59;62.57;97017.34;5086811;28;20766;-73
2021/11/10 10:33:12;;;;;;;13.25;8.43;;;;;;;8.50;62.78;96994.66;5087010;28;20044;-72
2021/11/10 10:35:41;;;;;;;12.63;7.50;;;;;;;8.49;63.65;96987.63;5087209;28;20056;-73
2021/11/10 10:38:12;;;;;;;19.45;9.02;;;;;;;8.47;63.39;96983.59;5086666;28;20056;-73
2021/11/10 10:40:41;;;;;;;19.88;8.50;;;;;;;8.50;65.39;96980.28;5087401;28;20052;-73
2021/11/10 10:43:08;;;;;;;15.02;7.65;;;;;;;8.48;63.53;96985.19;5086333;28;20407;-73
2021/11/10 10:45:37;;;;;;;12.70;7.05;;;;;;;8.48;63.54;96980.56;5091616;28;20059;-73
2021/11/10 10:48:09;;;;;;;17.25;8.25;;;;;;;8.45;63.17;96980.34;5090266;28;20048;-72
2021/11/10 10:50:48;;;;;;;14.80;7.05;;;;;;;8.47;63.50;96981.69;5091740;28;20058;-73
2021/11/10 10:53:21;;;;;;;19.33;8.63;;;;;;;8.52;63.59;96987.03;5090041;28;20052;-73
2021/11/10 10:55:50;;;;;;;12.75;7.78;;;;;;;8.55;63.84;96989.16;5090660;28;20051;-73
2021/11/10 10:58:34;;;;;;;11.40;7.38;;;;;;;8.54;63.98;96973.97;5090380;28;20052;-73
2021/11/10 11:01:16;;;;;;;16.88;7.68;;;;;;;8.53;64.18;96950.66;5090266;28;20079;-73
2021/11/10 11:03:49;;;;;;;17.83;8.02;;;;;;;8.59;64.10;96967.69;5090811;28;20822;-73
2021/11/10 11:06:23;;;;;;;16.42;8.25;;;;;;;8.59;63.24;96960.34;5089856;28;20048;-73
2021/11/10 11:08:52;;;;;;;22.70;9.70;;;;;;;8.58;63.51;96964.16;5090352;28;20873;-73
2021/11/10 11:11:35;;;;;;;13.48;8.77;;;;;;;8.63;63.61;96947.00;5090248;28;20048;-73
2021/11/10 11:14:02;;;;;;;;;;;;;;;8.64;63.95;96945.91;5090150;28;20526;-72
2021/11/10 11:16:40;;;;;;;15.52;8.70;;;;;;;8.58;64.55;96952.50;5090868;28;19931;-73
2021/11/10 11:19:18;;;;;;;15.95;8.60;;;;;;;8.59;64.82;96935.09;5089522;28;20052;-73
2021/11/10 11:21:52;;;;;;;17.80;9.23;;;;;;;8.62;65.30;96926.41;5090627;28;20052;-73
2021/11/10 11:24:32;;;;;;;14.90;8.95;;;;;;;8.67;65.24;96933.66;5089228;28;20048;-73
2021/11/10 11:27:13;;;;;;;15.13;9.27;;;;;;;8.71;65.09;96929.25;5090190;28;20052;-73
2021/11/10 11:29:39;;;;;;;15.45;9.27;;;;;;;8.73;65.02;96918.94;5090358;28;20093;-73
2021/11/10 11:32:19;;;;;;;15.95;8.65;;;;;;;8.78;64.94;96918.84;5090086;28;20052;-73
2021/11/10 11:34:47;;;;;;;15.93;8.00;;;;;;;8.86;64.81;96915.47;5090922;28;20052;-73
2021/11/10 11:37:14;;;;;;;18.38;8.55;;;;;;;8.95;64.19;96924.59;5089299;28;20101;-73
2021/11/10 11:39:42;;;;;;;12.52;8.88;;;;;;;8.98;64.52;96921.28;5090582;28;20677;-73